Time;durP1;ratioP1;P1;durP2;ratioP2;P2;SDS_P1;SDS_P2;PMS_P1;PMS_P2;Temp;Humidity;BMP_temperature;BMP_pressure;BME280_temperature;BME280_humidity;BME280_pressure;Samples;Min_cycle;Max_cycle;Signal;HPM_P1;HPM_P2
2023/09/02 00:02:20;;;;;;;13.30;11.90;;;16.10;78.30;;;;;;5093547;28;20471;-71
2023/09/02 00:04:46;;;;;;;13.70;11.93;;;16.00;78.40;;;;;;5092822;28;20051;-71
2023/09/02 00:07:11;;;;;;;11.68;10.43;;;16.00;78.50;;;;;;5094082;28;20475;-71
2023/09/02 00:09:37;;;;;;;9.27;8.38;;;16.00;78.60;;;;;;5104155;28;20118;-71
2023/09/02 00:12:03;;;;;;;8.73;7.82;;;16.00;78.60;;;;;;5095610;28;20495;-71
2023/09/02 00:14:29;;;;;;;7.97;7.18;;;16.00;78.60;;;;;;5102793;28;20035;-71
2023/09/02 00:16:54;;;;;;;9.00;7.72;;;16.00;78.50;;;;;;5111116;28;20046;-71
2023/09/02 00:19:21;;;;;;;15.43;12.88;;;16.00;78.40;;;;;;5101930;28;20039;-71
2023/09/02 00:21:47;;;;;;;14.05;12.57;;;16.00;78.40;;;;;;5107144;28;20051;-71
2023/09/02 00:24:12;;;;;;;15.32;13.82;;;16.00;78.40;;;;;;5079278;28;20039;-71
2023/09/02 00:26:38;;;;;;;14.60;13.20;;;16.00;78.50;;;;;;5110862;28;20367;-71
2023/09/02 00:29:04;;;;;;;13.85;12.23;;;16.00;78.60;;;;;;5100386;28;20071;-71
2023/09/02 00:31:30;;;;;;;14.35;12.88;;;16.00;78.60;;;;;;5093363;28;20040;-71
2023/09/02 00:33:55;;;;;;;11.00;9.90;;;16.00;78.70;;;;;;5108567;28;20110;-71
2023/09/02 00:36:21;;;;;;;12.45;11.15;;;16.00;78.70;;;;;;5105987;28;20364;-71
2023/09/02 00:38:48;;;;;;;15.32;13.73;;;16.00;78.70;;;;;;5095669;28;20487;-71
2023/09/02 00:41:25;;;;;;;17.75;14.75;;;16.00;78.80;;;;;;5110519;28;20054;-71
2023/09/02 00:43:54;;;;;;;12.30;11.07;;;16.00;78.90;;;;;;5108418;28;20449;-71
2023/09/02 00:46:21;;;;;;;9.25;8.35;;;16.00;79.00;;;;;;5093385;28;20048;-71
2023/09/02 00:48:47;;;;;;;13.20;11.82;;;15.90;79.10;;;;;;5096702;28;20122;-71
2023/09/02 00:51:12;;;;;;;15.82;13.75;;;15.90;79.10;;;;;;5098604;28;20123;-71
2023/09/02 00:53:38;;;;;;;16.08;14.43;;;15.90;79.20;;;;;;5091947;28;20462;-71
2023/09/02 00:56:04;;;;;;;15.05;13.63;;;15.90;79.30;;;;;;5107394;28;20058;-71
2023/09/02 00:58:30;;;;;;;10.63;9.63;;;15.90;79.40;;;;;;5099169;28;20040;-71
2023/09/02 01:00:58;;;;;;;17.23;15.32;;;15.90;79.50;;;;;;5095567;28;20044;-71
2023/09/02 01:03:24;;;;;;;15.05;13.65;;;15.90;79.50;;;;;;5093189;28;20497;-71
2023/09/02 01:05:50;;;;;;;15.57;13.95;;;15.90;79.60;;;;;;5105748;28;20050;-71
2023/09/02 01:08:19;;;;;;;17.23;15.43;;;15.90;79.70;;;;;;5107464;28;20035;-71
2023/09/02 01:10:45;;;;;;;16.00;14.25;;;15.90;79.70;;;;;;5080692;28;20048;-71
2023/09/02 01:13:11;;;;;;;12.65;10.98;;;15.90;79.80;;;;;;5095012;28;20043;-71
2023/09/02 01:15:36;;;;;;;14.25;12.85;;;15.80;79.80;;;;;;5098373;28;20518;-71
2023/09/02 01:18:03;;;;;;;16.83;15.05;;;15.90;80.00;;;;;;5105521;28;20042;-71
2023/09/02 01:20:45;;;;;;;15.50;14.00;;;15.90;80.10;;;;;;5100391;28;20042;-71
2023/09/02 01:23:22;;;;;;;14.98;13.48;;;15.90;80.30;;;;;;5091606;28;20035;-71
2023/09/02 01:26:06;;;;;;;10.52;9.38;;;15.90;80.50;;;;;;5093234;28;20036;-71
2023/09/02 01:28:34;;;;;;;12.30;10.30;;;15.80;80.20;;;;;;5096941;28;20036;-71
2023/09/02 01:31:02;;;;;;;8.70;7.90;;;15.80;80.30;;;;;;5105739;28;20055;-71
2023/09/02 01:33:28;;;;;;;16.92;15.15;;;15.80;80.30;;;;;;5113995;28;20078;-71
2023/09/02 01:35:58;;;;;;;17.10;15.32;;;15.90;80.30;;;;;;5105136;28;20043;-71
2023/09/02 01:38:26;;;;;;;18.65;16.80;;;15.90;80.40;;;;;;5096660;28;20161;-71
2023/09/02 01:40:54;;;;;;;14.32;12.80;;;15.90;80.50;;;;;;5104793;28;20036;-71
2023/09/02 01:43:23;;;;;;;13.93;12.52;;;15.90;80.60;;;;;;5077634;28;20505;-71
2023/09/02 01:45:51;;;;;;;14.73;13.32;;;15.90;80.60;;;;;;5097193;28;20036;-71
2023/09/02 01:48:18;;;;;;;19.52;16.90;;;15.90;80.60;;;;;;5099693;28;20052;-71
2023/09/02 01:50:44;;;;;;;10.25;9.13;;;15.90;80.60;;;;;;5101839;28;20048;-71
2023/09/02 01:53:10;;;;;;;9.25;8.43;;;15.90;80.60;;;;;;5113808;28;20158;-71
2023/09/02 01:55:36;;;;;;;9.40;8.38;;;15.90;80.60;;;;;;5092843;28;20123;-71
2023/09/02 01:58:02;;;;;;;8.57;7.68;;;15.90;80.50;;;;;;5097769;28;20087;-71
2023/09/02 02:00:27;;;;;;;11.07;9.30;;;15.80;80.30;;;;;;5099652;28;20498;-71
2023/09/02 02:02:58;;;;;;;10.10;8.38;;;15.90;80.20;;;;;;5086860;28;20437;-71
2023/09/02 02:05:33;;;;;;;12.88;11.57;;;15.90;80.10;;;;;;5097972;28;20142;-71
2023/09/02 02:08:05;;;;;;;11.02;9.93;;;15.90;80.00;;;;;;5094442;28;20036;-71
2023/09/02 02:10:33;;;;;;;10.00;9.00;;;16.00;80.00;;;;;;5097424;28;20102;-71
2023/09/02 02:13:02;;;;;;;9.02;8.15;;;16.00;80.00;;;;;;5101921;28;20042;-71
2023/09/02 02:15:28;;;;;;;9.95;8.95;;;16.00;79.90;;;;;;5106954;28;20045;-71
2023/09/02 02:17:53;;;;;;;14.65;13.18;;;16.00;79.80;;;;;;5094850;28;20039;-71
2023/09/02 02:20:21;;;;;;;15.63;12.40;;;16.00;79.80;;;;;;5095105;28;20036;-71
2023/09/02 02:22:46;;;;;;;14.25;12.85;;;16.00;79.80;;;;;;5105466;28;20118;-71
2023/09/02 02:25:12;;;;;;;13.88;12.52;;;16.00;79.80;;;;;;5102599;28;20107;-71
2023/09/02 02:27:38;;;;;;;13.90;12.50;;;16.00;79.90;;;;;;5100479;28;20076;-71
2023/09/02 02:30:04;;;;;;;14.85;13.18;;;16.00;79.90;;;;;;5112979;28;20092;-71
2023/09/02 02:32:30;;;;;;;13.10;11.90;;;16.00;80.00;;;;;;5092916;28;20062;-71
2023/09/02 02:34:55;;;;;;;13.13;11.88;;;16.00;80.00;;;;;;5096127;28;20457;-71
2023/09/02 02:37:21;;;;;;;15.38;13.80;;;16.00;80.00;;;;;;5106689;28;20036;-71
2023/09/02 02:39:47;;;;;;;14.48;13.07;;;16.00;80.00;;;;;;5113088;28;20061;-71
2023/09/02 02:42:14;;;;;;;15.15;13.65;;;16.00;80.00;;;;;;5109591;28;20053;-71
2023/09/02 02:44:40;;;;;;;14.23;12.73;;;16.00;80.10;;;;;;5108265;28;20039;-71
2023/09/02 02:47:06;;;;;;;11.63;10.50;;;15.90;80.10;;;;;;5105474;28;20068;-71
2023/09/02 02:49:32;;;;;;;9.40;8.55;;;16.00;80.20;;;;;;5103003;28;20036;-71
2023/09/02 02:52:01;;;;;;;10.93;9.77;;;15.90;80.10;;;;;;5087246;28;20039;-71
2023/09/02 02:54:27;;;;;;;8.57;7.78;;;15.90;80.20;;;;;;5080048;28;20055;-71
2023/09/02 02:56:52;;;;;;;11.18;9.23;;;15.90;80.10;;;;;;5103086;28;20040;-71
2023/09/02 02:59:18;;;;;;;9.20;8.32;;;15.90;80.10;;;;;;5112526;28;20040;-71
2023/09/02 03:01:44;;;;;;;9.07;8.23;;;15.90;80.10;;;;;;5103570;28;20044;-71
2023/09/02 03:04:10;;;;;;;19.00;14.57;;;15.90;80.00;;;;;;5112125;28;20039;-71
2023/09/02 03:06:35;;;;;;;15.82;14.13;;;15.90;80.00;;;;;;5100912;28;20043;-71
2023/09/02 03:09:02;;;;;;;15.73;14.13;;;15.90;80.00;;;;;;5109655;28;20040;-71
2023/09/02 03:11:28;;;;;;;15.15;13.73;;;16.00;80.20;;;;;;5100330;28;20083;-71
2023/09/02 03:13:55;;;;;;;14.90;13.38;;;15.90;80.20;;;;;;5093775;28;20076;-71
2023/09/02 03:16:21;;;;;;;9.52;8.52;;;15.90;80.20;;;;;;5098734;28;20519;-71
2023/09/02 03:18:47;;;;;;;9.10;8.27;;;16.00;80.30;;;;;;5105429;28;20079;-71
2023/09/02 03:21:13;;;;;;;9.35;8.45;;;15.90;80.20;;;;;;5111317;28;20047;-71
2023/09/02 03:23:38;;;;;;;9.95;9.05;;;15.90;80.10;;;;;;5093510;28;20040;-71
2023/09/02 03:26:18;;;;;;;10.05;9.00;;;15.90;80.00;;;;;;5098707;28;20101;-71
2023/09/02 03:28:43;;;;;;;11.30;9.32;;;15.90;79.80;;;;;;5102288;28;20111;-71
2023/09/02 03:31:10;;;;;;;9.73;8.82;;;15.90;79.80;;;;;;5093665;28;20127;-71
2023/09/02 03:33:37;;;;;;;12.20;11.00;;;15.90;79.90;;;;;;5100969;28;20047;-71
2023/09/02 03:36:03;;;;;;;9.82;8.82;;;15.90;79.80;;;;;;5093362;28;20050;-71
2023/09/02 03:38:30;;;;;;;9.02;8.15;;;15.90;79.80;;;;;;5093482;28;20386;-71
2023/09/02 03:40:56;;;;;;;9.35;8.30;;;15.90;79.70;;;;;;5093389;28;20086;-71
2023/09/02 03:43:22;;;;;;;11.65;10.52;;;15.90;79.70;;;;;;5096646;28;20036;-71
2023/09/02 03:45:48;;;;;;;10.05;9.05;;;15.90;79.70;;;;;;5093172;28;20047;-71
2023/09/02 03:48:19;;;;;;;9.43;8.52;;;15.90;79.70;;;;;;5096499;28;20407;-71
2023/09/02 03:51:00;;;;;;;9.02;8.13;;;16.00;79.80;;;;;;5102408;28;20440;-71
2023/09/02 03:53:25;;;;;;;9.43;8.52;;;15.90;79.60;;;;;;5097672;28;20040;-71
2023/09/02 03:55:51;;;;;;;8.80;7.90;;;16.00;79.70;;;;;;5100721;28;20048;-71
2023/09/02 03:58:17;;;;;;;10.60;9.65;;;16.00;79.70;;;;;;5095372;28;20184;-71
2023/09/02 04:00:42;;;;;;;14.25;12.95;;;15.90;79.70;;;;;;5100455;28;20069;-71
2023/09/02 04:03:08;;;;;;;15.68;14.18;;;15.90;79.70;;;;;;5111426;28;20079;-71
2023/09/02 04:05:34;;;;;;;14.63;13.15;;;15.90;79.80;;;;;;5100125;28;20038;-71
2023/09/02 04:07:59;;;;;;;17.50;15.82;;;15.90;80.00;;;;;;5082125;28;20360;-71
2023/09/02 04:10:25;;;;;;;17.75;15.93;;;15.90;80.20;;;;;;5098473;28;20035;-71
2023/09/02 04:12:51;;;;;;;21.25;18.55;;;15.90;80.40;;;;;;5109585;28;20127;-71
2023/09/02 04:15:18;;;;;;;19.75;17.65;;;15.90;80.80;;;;;;5094022;28;20054;-71
2023/09/02 04:17:43;;;;;;;20.13;18.02;;;15.80;80.80;;;;;;5094764;28;20047;-71
2023/09/02 04:20:10;;;;;;;19.10;17.17;;;15.80;81.10;;;;;;5091512;28;20043;-71
2023/09/02 04:22:36;;;;;;;21.98;19.08;;;15.70;81.40;;;;;;5110755;28;20071;-71
2023/09/02 04:25:02;;;;;;;18.80;16.90;;;15.70;81.60;;;;;;5104912;28;20067;-71
2023/09/02 04:27:28;;;;;;;19.15;17.25;;;15.70;81.80;;;;;;5108473;28;20080;-71
2023/09/02 04:29:54;;;;;;;20.50;17.40;;;15.60;82.00;;;;;;5099564;28;20036;-71
2023/09/02 04:32:20;;;;;;;15.85;14.13;;;15.70;82.20;;;;;;5109203;28;20042;-71
2023/09/02 04:34:46;;;;;;;18.73;16.92;;;15.70;82.30;;;;;;5110816;28;20093;-71
2023/09/02 04:37:12;;;;;;;18.13;16.33;;;15.70;82.40;;;;;;5094532;28;20043;-71
2023/09/02 04:39:40;;;;;;;16.77;14.95;;;15.70;82.40;;;;;;5091997;28;20050;-71
2023/09/02 04:42:06;;;;;;;15.77;14.27;;;15.70;82.50;;;;;;5096227;28;20050;-71
2023/09/02 04:44:31;;;;;;;14.18;12.73;;;15.70;82.60;;;;;;5099717;28;20044;-71
2023/09/02 04:46:57;;;;;;;17.88;16.17;;;15.70;82.60;;;;;;5094491;28;20075;-71
2023/09/02 04:49:23;;;;;;;16.35;14.60;;;15.70;82.60;;;;;;5093565;28;20040;-71
2023/09/02 04:51:49;;;;;;;13.05;11.15;;;15.80;82.70;;;;;;5102908;28;20042;-71
2023/09/02 04:54:14;;;;;;;13.10;11.18;;;15.70;82.60;;;;;;5107551;28;20082;-71
2023/09/02 04:56:40;;;;;;;17.60;15.90;;;15.80;82.60;;;;;;5102126;28;20122;-71
2023/09/02 04:59:06;;;;;;;16.90;15.30;;;15.80;82.50;;;;;;5109095;28;20042;-71
2023/09/02 05:01:31;;;;;;;15.23;13.73;;;15.80;82.50;;;;;;5088353;28;20044;-71
2023/09/02 05:03:57;;;;;;;16.17;14.55;;;15.80;82.50;;;;;;5091814;28;20036;-71
2023/09/02 05:06:23;;;;;;;10.52;9.43;;;15.80;82.50;;;;;;5097741;28;20124;-71
2023/09/02 05:08:53;;;;;;;12.13;10.93;;;15.80;82.40;;;;;;5096775;28;20576;-71
2023/09/02 05:11:20;;;;;;;12.45;11.25;;;15.80;82.30;;;;;;5094584;28;20044;-71
2023/09/02 05:13:48;;;;;;;18.90;17.00;;;15.90;82.30;;;;;;5110126;28;20047;-72
2023/09/02 05:16:14;;;;;;;16.42;14.77;;;15.90;82.30;;;;;;5082171;28;20036;-71
2023/09/02 05:18:40;;;;;;;16.58;13.82;;;15.90;82.20;;;;;;5105452;28;20452;-71
2023/09/02 05:21:05;;;;;;;13.35;12.05;;;15.90;82.10;;;;;;5102606;28;20066;-71
2023/09/02 05:23:32;;;;;;;15.32;13.70;;;15.80;82.00;;;;;;5110260;28;20068;-71
2023/09/02 05:25:58;;;;;;;13.60;12.27;;;15.90;82.10;;;;;;5108309;28;20036;-71
2023/09/02 05:28:25;;;;;;;14.90;13.43;;;15.90;82.10;;;;;;5092090;28;20046;-71
2023/09/02 05:30:51;;;;;;;15.60;14.00;;;15.90;82.00;;;;;;5091695;28;20044;-71
2023/09/02 05:33:17;;;;;;;15.65;14.18;;;15.90;81.90;;;;;;5091147;28;20050;-71
2023/09/02 05:35:44;;;;;;;13.15;11.85;;;15.90;81.90;;;;;;5090931;28;20483;-71
2023/09/02 05:38:10;;;;;;;15.20;13.77;;;15.90;81.80;;;;;;5106174;28;20383;-71
2023/09/02 05:40:40;;;;;;;17.55;15.77;;;15.90;81.80;;;;;;5093027;28;20040;-71
2023/09/02 05:43:06;;;;;;;18.02;15.88;;;15.90;81.90;;;;;;5101153;28;20479;-71
2023/09/02 05:45:31;;;;;;;14.90;13.43;;;16.00;81.90;;;;;;5103218;28;20089;-71
2023/09/02 05:47:57;;;;;;;14.85;13.38;;;16.00;82.00;;;;;;5099390;28;20483;-71
2023/09/02 05:50:23;;;;;;;13.20;11.98;;;16.00;82.10;;;;;;5091349;28;20036;-71
2023/09/02 05:52:48;;;;;;;13.07;11.77;;;16.00;82.20;;;;;;5101419;28;20048;-71
2023/09/02 05:55:14;;;;;;;16.95;15.30;;;16.00;82.20;;;;;;5094039;28;20044;-71
2023/09/02 05:57:40;;;;;;;16.42;14.93;;;16.00;82.20;;;;;;5095320;28;20046;-71
2023/09/02 06:00:06;;;;;;;17.42;15.70;;;16.10;82.30;;;;;;5091216;28;20494;-71
2023/09/02 06:02:35;;;;;;;19.15;17.20;;;16.10;82.40;;;;;;5094527;28;20090;-71
2023/09/02 06:05:02;;;;;;;20.63;18.52;;;16.10;82.60;;;;;;5071082;28;20113;-71
2023/09/02 06:07:27;;;;;;;21.25;19.10;;;16.10;82.60;;;;;;5096809;28;20109;-71
2023/09/02 06:09:53;;;;;;;21.98;19.08;;;16.10;82.60;;;;;;5078395;28;20070;-71
2023/09/02 06:12:19;;;;;;;21.48;19.17;;;16.10;82.70;;;;;;5098815;28;20078;-71
2023/09/02 06:14:44;;;;;;;26.05;21.25;;;16.10;82.70;;;;;;5114164;28;20453;-71
2023/09/02 06:17:10;;;;;;;23.90;21.30;;;16.10;82.80;;;;;;5108335;28;20039;-71
2023/09/02 06:19:36;;;;;;;24.98;20.95;;;16.10;83.00;;;;;;5095006;28;20040;-71
2023/09/02 06:22:01;;;;;;;26.83;21.38;;;16.10;83.20;;;;;;5097879;28;20449;-71
2023/09/02 06:24:28;;;;;;;24.88;21.90;;;16.10;83.40;;;;;;5112229;28;20039;-71
2023/09/02 06:26:53;;;;;;;23.52;21.02;;;16.10;83.50;;;;;;5111664;28;20032;-71
2023/09/02 06:29:19;;;;;;;22.80;20.50;;;16.20;83.70;;;;;;5101324;28;20089;-71
2023/09/02 06:31:45;;;;;;;21.17;18.98;;;16.20;83.80;;;;;;5113028;28;20078;-71
2023/09/02 06:34:11;;;;;;;19.80;17.55;;;16.20;83.70;;;;;;5104275;28;20048;-71
2023/09/02 06:36:37;;;;;;;22.63;20.23;;;16.20;83.70;;;;;;5092009;28;20420;-71
2023/09/02 06:39:04;;;;;;;26.27;21.40;;;16.30;83.70;;;;;;5098680;28;20127;-71
2023/09/02 06:41:30;;;;;;;20.80;18.58;;;16.30;83.70;;;;;;5094432;28;20096;-71
2023/09/02 06:43:56;;;;;;;24.13;20.50;;;16.30;84.20;;;;;;5100210;28;20044;-71
2023/09/02 06:46:25;;;;;;;22.48;20.15;;;16.30;83.80;;;;;;5091602;28;20035;-71
2023/09/02 06:48:51;;;;;;;22.80;20.50;;;16.40;83.80;;;;;;5106151;28;20039;-71
2023/09/02 06:51:17;;;;;;;24.35;21.73;;;16.40;83.70;;;;;;5093227;28;20096;-71
2023/09/02 06:53:43;;;;;;;26.15;23.35;;;16.40;83.70;;;;;;5098488;28;20126;-71
2023/09/02 06:56:13;;;;;;;28.40;23.25;;;16.40;83.60;;;;;;5102396;28;20540;-72
2023/09/02 06:58:40;;;;;;;24.75;22.08;;;16.40;83.70;;;;;;5098914;28;20384;-71
2023/09/02 07:01:06;;;;;;;23.98;21.60;;;16.40;83.80;;;;;;5077078;28;20070;-72
2023/09/02 07:03:32;;;;;;;26.50;23.70;;;16.50;84.00;;;;;;5101868;28;20035;-71
2023/09/02 07:06:08;;;;;;;26.30;23.70;;;16.50;84.10;;;;;;5095702;28;20115;-72
2023/09/02 07:08:34;;;;;;;26.38;23.73;;;16.50;84.20;;;;;;5102751;28;20043;-71
2023/09/02 07:11:00;;;;;;;30.52;26.42;;;16.50;84.20;;;;;;5098430;28;20039;-71
2023/09/02 07:13:25;;;;;;;29.45;26.38;;;16.60;84.40;;;;;;5103207;28;20123;-71
2023/09/02 07:16:02;;;;;;;29.58;26.45;;;16.60;84.50;;;;;;5111852;28;20092;-71
2023/09/02 07:18:28;;;;;;;26.52;23.83;;;16.70;85.20;;;;;;5095674;28;20050;-71
2023/09/02 07:21:04;;;;;;;26.27;23.08;;;16.70;85.50;;;;;;5093497;28;20047;-72
2023/09/02 07:23:32;;;;;;;28.15;23.85;;;16.90;86.00;;;;;;5097581;28;20046;-71
2023/09/02 07:26:04;;;;;;;23.52;21.05;;;17.00;86.00;;;;;;5107055;28;20340;-72
2023/09/02 07:28:31;;;;;;;19.88;17.88;;;17.10;86.00;;;;;;5095609;28;20363;-72
2023/09/02 07:31:01;;;;;;;26.75;22.42;;;17.20;85.90;;;;;;5111752;28;20044;-73
2023/09/02 07:33:27;;;;;;;24.45;21.65;;;17.30;85.70;;;;;;5094818;28;20495;-73
2023/09/02 07:35:53;;;;;;;26.10;21.75;;;17.50;85.70;;;;;;5110423;28;20123;-74
2023/09/02 07:38:19;;;;;;;24.52;22.00;;;17.60;85.50;;;;;;5108394;28;20154;-73
2023/09/02 07:40:44;;;;;;;25.83;22.80;;;17.70;85.20;;;;;;5103518;28;20051;-73
2023/09/02 07:43:11;;;;;;;22.85;20.50;;;17.80;84.70;;;;;;5098139;28;20523;-73
2023/09/02 07:45:36;;;;;;;22.08;19.88;;;17.90;84.30;;;;;;5102735;28;20047;-73
2023/09/02 07:48:02;;;;;;;22.35;20.10;;;18.00;84.00;;;;;;5093896;28;20045;-74
2023/09/02 07:50:28;;;;;;;22.58;20.20;;;18.00;83.70;;;;;;5110867;28;20048;-73
2023/09/02 07:52:53;;;;;;;23.75;21.27;;;18.10;83.40;;;;;;5111287;28;20558;-73
2023/09/02 07:55:19;;;;;;;22.85;20.52;;;18.20;83.10;;;;;;5106268;28;20039;-73
2023/09/02 07:57:45;;;;;;;22.75;19.67;;;18.20;82.60;;;;;;5112235;28;20075;-73
2023/09/02 08:00:11;;;;;;;21.15;18.90;;;18.30;82.50;;;;;;5091841;28;20438;-73
2023/09/02 08:02:37;;;;;;;19.00;17.20;;;18.30;82.20;;;;;;5089126;28;20102;-73
2023/09/02 08:05:02;;;;;;;20.42;17.65;;;18.40;82.10;;;;;;5092963;28;20031;-73
2023/09/02 08:07:31;;;;;;;22.67;18.20;;;18.40;81.90;;;;;;5103856;28;20123;-73
2023/09/02 08:09:57;;;;;;;19.75;17.75;;;18.50;81.60;;;;;;5092511;28;20047;-73
2023/09/02 08:12:22;;;;;;;18.70;16.75;;;18.50;81.50;;;;;;5092790;28;20044;-73
2023/09/02 08:14:48;;;;;;;17.95;16.10;;;18.50;81.30;;;;;;5093203;28;20039;-73
2023/09/02 08:17:14;;;;;;;21.67;18.40;;;18.60;81.00;;;;;;5092399;28;20052;-73
2023/09/02 08:19:40;;;;;;;18.50;16.60;;;18.60;80.60;;;;;;5093510;28;20040;-73
2023/09/02 08:22:05;;;;;;;19.73;17.65;;;18.70;80.50;;;;;;5078777;28;20075;-73
2023/09/02 08:24:31;;;;;;;22.33;18.85;;;18.70;80.60;;;;;;5099794;28;20339;-73
2023/09/02 08:26:57;;;;;;;20.98;18.70;;;18.70;80.70;;;;;;5105420;28;20044;-73
2023/09/02 08:29:22;;;;;;;25.58;20.58;;;18.70;80.50;;;;;;5108501;28;20036;-73
2023/09/02 08:31:56;;;;;;;23.52;20.13;;;18.80;80.40;;;;;;5080370;28;20671;-73
2023/09/02 08:34:22;;;;;;;24.38;19.77;;;18.80;80.20;;;;;;5093971;28;20050;-73
2023/09/02 08:36:48;;;;;;;24.25;21.60;;;18.90;80.10;;;;;;5102561;28;20162;-73
2023/09/02 08:39:14;;;;;;;23.08;20.58;;;18.90;79.90;;;;;;5094372;28;20127;-73
2023/09/02 08:41:41;;;;;;;22.48;20.17;;;19.00;79.90;;;;;;5095747;28;20047;-73
2023/09/02 08:44:09;;;;;;;22.63;20.27;;;19.00;79.60;;;;;;5091565;28;20056;-73
2023/09/02 08:46:40;;;;;;;23.30;20.48;;;19.10;79.50;;;;;;5093837;28;20067;-73
2023/09/02 08:49:06;;;;;;;23.40;19.88;;;19.10;79.30;;;;;;5095492;28;20048;-73
2023/09/02 08:51:34;;;;;;;22.05;19.60;;;19.10;79.00;;;;;;5099808;28;20042;-74
2023/09/02 08:54:00;;;;;;;22.73;20.17;;;19.20;78.70;;;;;;5099984;28;20047;-73
2023/09/02 08:56:26;;;;;;;22.38;19.70;;;19.20;78.60;;;;;;5097095;28;20046;-73
2023/09/02 08:58:55;;;;;;;23.92;20.20;;;19.20;78.50;;;;;;5100731;28;20407;-73
2023/09/02 09:01:22;;;;;;;22.60;20.33;;;19.30;78.60;;;;;;5102562;28;20110;-73
2023/09/02 09:03:53;;;;;;;22.73;20.30;;;19.30;78.20;;;;;;5096669;28;20065;-73
2023/09/02 09:06:21;;;;;;;25.13;20.10;;;19.40;77.50;;;;;;5103119;28;20040;-73
2023/09/02 09:08:48;;;;;;;23.52;20.45;;;19.40;76.80;;;;;;5092681;28;20091;-73
2023/09/02 09:11:17;;;;;;;23.52;21.02;;;19.40;76.70;;;;;;5097158;28;20040;-73
2023/09/02 09:13:47;;;;;;;22.05;19.42;;;19.50;76.90;;;;;;5097490;28;20046;-73
2023/09/02 09:16:16;;;;;;;24.23;21.05;;;19.50;77.00;;;;;;5091635;28;20040;-73
2023/09/02 09:18:42;;;;;;;22.48;19.05;;;19.70;76.50;;;;;;5082221;28;20044;-73
2023/09/02 09:21:08;;;;;;;27.50;20.35;;;19.70;76.40;;;;;;5071708;28;20059;-75
2023/09/02 09:23:37;;;;;;;22.30;19.90;;;19.90;76.50;;;;;;5084585;28;20072;-75
2023/09/02 09:26:04;;;;;;;20.88;18.35;;;20.00;76.30;;;;;;5086513;28;20040;-75
2023/09/02 09:28:58;;;;;;;21.30;19.02;;;20.10;75.10;;;;;;5102405;27;20039;-75
2023/09/02 09:31:26;;;;;;;21.42;19.13;;;20.30;73.90;;;;;;5086231;28;20044;-75
2023/09/02 09:34:00;;;;;;;19.92;17.50;;;20.40;73.90;;;;;;5069031;28;20047;-75
2023/09/02 09:36:28;;;;;;;23.52;17.73;;;20.60;74.30;;;;;;5069658;28;20098;-74
2023/09/02 09:38:56;;;;;;;19.67;17.52;;;20.70;72.30;;;;;;5086556;28;20032;-74
2023/09/02 09:41:23;;;;;;;18.58;16.63;;;20.80;71.50;;;;;;5086145;28;20040;-74
2023/09/02 09:44:05;;;;;;;21.52;18.05;;;20.90;71.20;;;;;;5087287;28;20047;-74
2023/09/02 09:46:46;;;;;;;19.00;17.10;;;21.00;70.10;;;;;;5087551;28;20028;-75
2023/09/02 09:49:32;;;;;;;18.38;14.85;;;21.10;70.10;;;;;;5071716;28;20488;-74
2023/09/02 09:52:01;;;;;;;21.88;17.02;;;21.10;68.70;;;;;;5089092;28;20083;-74
2023/09/02 09:54:39;;;;;;;18.70;16.20;;;21.10;68.60;;;;;;5090117;28;20421;-73
2023/09/02 09:57:09;;;;;;;21.08;17.10;;;21.10;68.10;;;;;;5090043;28;21602;-74
2023/09/02 09:59:36;;;;;;;17.38;15.48;;;21.10;68.40;;;;;;5089405;28;20491;-74
2023/09/02 10:02:05;;;;;;;18.02;15.07;;;21.20;68.50;;;;;;5089623;28;20123;-74
2023/09/02 10:04:32;;;;;;;19.20;16.10;;;21.20;67.50;;;;;;5089154;28;20047;-74
2023/09/02 10:07:02;;;;;;;18.92;15.77;;;21.20;67.70;;;;;;5087776;28;20042;-74
2023/09/02 10:09:45;;;;;;;18.70;14.57;;;21.20;67.40;;;;;;5071942;28;20047;-74
2023/09/02 10:12:12;;;;;;;20.10;15.57;;;21.30;67.30;;;;;;5089189;28;20036;-74
2023/09/02 10:14:42;;;;;;;18.38;14.48;;;21.30;67.20;;;;;;5089289;28;20048;-74
2023/09/02 10:17:09;;;;;;;18.45;15.82;;;21.40;66.80;;;;;;5089061;28;20078;-74
2023/09/02 10:19:35;;;;;;;15.25;13.57;;;21.40;67.30;;;;;;5097181;28;20051;-74
2023/09/02 10:22:05;;;;;;;15.10;13.45;;;21.50;67.50;;;;;;5093547;28;20433;-74
2023/09/02 10:24:40;;;;;;;18.40;14.25;;;21.60;67.30;;;;;;5072083;28;20544;-74
2023/09/02 10:27:22;;;;;;;12.63;10.82;;;21.70;66.50;;;;;;5089216;28;20086;-74
2023/09/02 10:29:56;;;;;;;17.00;12.02;;;21.80;66.70;;;;;;5088964;28;20112;-74
2023/09/02 10:32:28;;;;;;;11.45;10.25;;;21.90;66.80;;;;;;5088840;28;20043;-74
2023/09/02 10:35:22;;;;;;;16.55;12.25;;;22.00;66.30;;;;;;5087151;28;20118;-75
2023/09/02 10:37:54;;;;;;;13.20;11.25;;;22.10;65.50;;;;;;5087704;28;20484;-75
2023/09/02 10:40:24;;;;;;;16.70;11.98;;;22.10;64.30;;;;;;5088341;28;20403;-75
2023/09/02 10:42:50;;;;;;;16.58;12.48;;;22.20;63.10;;;;;;5088293;28;20459;-75
2023/09/02 10:45:19;;;;;;;15.77;11.13;;;22.20;62.70;;;;;;5088864;28;20051;-75
2023/09/02 10:47:46;;;;;;;14.20;10.77;;;22.20;62.30;;;;;;5087869;28;20051;-76
2023/09/02 10:50:15;;;;;;;12.75;9.32;;;22.30;62.40;;;;;;5104839;28;20487;-76
2023/09/02 10:52:40;;;;;;;14.68;10.65;;;22.30;62.60;;;;;;5088928;28;20468;-76
2023/09/02 10:55:11;;;;;;;14.23;11.93;;;22.30;62.80;;;;;;5088702;28;20040;-77
2023/09/02 10:57:58;;;;;;;15.05;10.88;;;22.40;62.00;;;;;;5089387;28;20358;-76
2023/09/02 11:00:25;;;;;;;12.07;9.63;;;22.40;61.40;;;;;;5094221;28;20047;-76
2023/09/02 11:02:58;;;;;;;12.10;8.90;;;22.40;60.80;;;;;;5094628;28;20042;-76
2023/09/02 11:05:28;;;;;;;11.68;9.52;;;22.40;61.10;;;;;;5094717;28;20044;-76
2023/09/02 11:07:54;;;;;;;10.73;8.82;;;22.40;61.60;;;;;;5088316;28;20058;-76
2023/09/02 11:10:21;;;;;;;12.63;9.35;;;22.50;61.70;;;;;;5087199;28;20399;-76
2023/09/02 11:12:59;;;;;;;11.07;8.98;;;22.50;62.10;;;;;;5087763;28;20080;-76
2023/09/02 11:15:25;;;;;;;11.98;8.43;;;22.50;62.20;;;;;;5103695;28;20114;-76
2023/09/02 11:17:51;;;;;;;10.20;6.90;;;22.50;60.90;;;;;;5087126;28;20075;-76
2023/09/02 11:20:25;;;;;;;10.95;8.30;;;22.50;60.90;;;;;;5086606;28;20048;-75
2023/09/02 11:23:09;;;;;;;8.80;7.40;;;22.60;60.10;;;;;;5088313;28;20054;-75
2023/09/02 11:25:39;;;;;;;11.90;7.65;;;22.60;59.20;;;;;;5105948;27;20230;-77
2023/09/02 11:28:24;;;;;;;9.77;6.88;;;22.60;59.00;;;;;;5086249;28;20479;-77
2023/09/02 11:31:10;;;;;;;9.52;6.22;;;22.70;59.20;;;;;;5087186;28;20040;-77
2023/09/02 11:33:40;;;;;;;11.43;6.20;;;22.80;59.20;;;;;;5088118;28;20040;-76
2023/09/02 11:36:11;;;;;;;7.03;5.28;;;22.80;58.50;;;;;;5087556;28;20170;-76
2023/09/02 11:38:37;;;;;;;9.55;6.68;;;22.90;58.50;;;;;;5090016;28;20040;-77
2023/09/02 11:41:03;;;;;;;9.68;6.15;;;23.00;59.30;;;;;;5073387;28;20048;-76
2023/09/02 11:43:33;;;;;;;7.88;5.50;;;23.10;58.90;;;;;;5091812;28;20035;-77
2023/09/02 11:46:01;;;;;;;7.00;5.93;;;23.20;57.60;;;;;;5093454;28;20118;-76
2023/09/02 11:48:28;;;;;;;8.45;6.20;;;23.20;57.10;;;;;;5093383;28;20056;-76
2023/09/02 11:50:58;;;;;;;10.43;6.78;;;23.20;57.10;;;;;;5076927;28;20048;-76
2023/09/02 11:53:25;;;;;;;10.60;7.20;;;23.20;56.90;;;;;;5092876;28;20375;-76
2023/09/02 11:55:50;;;;;;;11.27;7.63;;;23.20;57.00;;;;;;5098715;28;20047;-76
2023/09/02 11:58:18;;;;;;;10.73;8.43;;;23.20;57.10;;;;;;5113068;28;20035;-76
2023/09/02 12:00:44;;;;;;;10.68;7.95;;;23.10;57.10;;;;;;5098429;28;20051;-76
2023/09/02 12:03:13;;;;;;;8.75;6.45;;;23.10;57.30;;;;;;5097404;28;20097;-76
2023/09/02 12:05:50;;;;;;;10.55;7.30;;;23.10;57.80;;;;;;5113061;28;20122;-75
2023/09/02 12:08:19;;;;;;;9.57;6.00;;;23.20;56.60;;;;;;5098843;28;20479;-75
2023/09/02 12:10:46;;;;;;;7.60;5.60;;;23.20;57.90;;;;;;5105119;28;20040;-74
2023/09/02 12:13:12;;;;;;;9.02;5.82;;;23.20;57.70;;;;;;5092916;28;20040;-75
2023/09/02 12:15:38;;;;;;;7.50;5.78;;;23.30;57.90;;;;;;5081548;28;20032;-75
2023/09/02 12:18:04;;;;;;;8.20;5.18;;;23.40;56.80;;;;;;5110518;28;20082;-74
2023/09/02 12:20:31;;;;;;;6.80;5.60;;;23.50;56.80;;;;;;5084970;28;20548;-75
2023/09/02 12:22:57;;;;;;;7.05;5.68;;;23.60;56.50;;;;;;5106188;28;20055;-75
2023/09/02 12:25:24;;;;;;;8.68;5.95;;;23.60;55.70;;;;;;5092608;28;20031;-75
2023/09/02 12:27:50;;;;;;;9.25;5.80;;;23.60;54.60;;;;;;5075206;28;20047;-75
2023/09/02 12:30:27;;;;;;;12.20;6.97;;;23.60;55.60;;;;;;5082807;28;20082;-75
2023/09/02 12:32:55;;;;;;;11.35;7.28;;;23.60;55.80;;;;;;5078363;28;20093;-75
2023/09/02 12:35:21;;;;;;;9.25;6.32;;;23.60;56.00;;;;;;5092699;28;20149;-74